This is the latest recevied weather packets stored in our database for station/object KI7JYE. If no packets are shown the sender has not sent any weather packets the latest 1 day(s).
| Time | Temp. | Humidity | Pressure | Rain* | Wind** | Luminosity | Snow |
|---|---|---|---|---|---|---|---|
| 1778086995 | 15.56° C | 79% | 1019.8 hPa | 0 mm | - | 227 W/m² | - |
| 1778086088 | 15° C | 81% | 1019.7 hPa | 0 mm | - | 166 W/m² | - |
| 1778083965 | 14.44° C | 82% | 1019.6 hPa | 0 mm | - | 143 W/m² | - |
| 1778081015 | 13.33° C | 87% | 1019.6 hPa | 0 mm | - | 140 W/m² | - |
| 1778080410 | 12.78° C | 88% | 1019.7 hPa | 0 mm | - | 43 W/m² | - |
| 1778079804 | 12.78° C | 88% | 1019.8 hPa | 0 mm | - | 32 W/m² | - |
| 1778078895 | 12.78° C | 89% | 1019.9 hPa | 0 mm | - | 27 W/m² | - |
| 1778074959 | 12.22° C | 91% | 1018.5 hPa | 0 mm | - | 23 W/m² | - |
| 1778071930 | 12.22° C | 91% | 1018.2 hPa | 0 mm | - | 0 W/m² | - |
| 1778071326 | 12.22° C | 91% | 1018.3 hPa | 0 mm | - | 0 W/m² | - |
| 1778070418 | 12.22° C | 90% | 1018 hPa | 0 mm | - | 0 W/m² | - |
| 1778069813 | 12.22° C | 90% | 1018.4 hPa | 0 mm | - | 0 W/m² | - |
| 1778068904 | 12.78° C | 90% | 1018.2 hPa | 0 mm | - | 0 W/m² | - |
| 1778067394 | 12.78° C | 90% | 1017.7 hPa | 0 mm | - | 0 W/m² | - |
| 1778066182 | 13.33° C | 90% | 1017.9 hPa | 0 mm | - | 0 W/m² | - |
| 1778064366 | 13.33° C | 88% | 1017.1 hPa | 0 mm | - | 0 W/m² | - |
| 1778063760 | 13.33° C | 88% | 1016.9 hPa | 0 mm | - | 0 W/m² | - |
| 1778063155 | 13.33° C | 88% | 1016.9 hPa | 0 mm | - | 0 W/m² | - |
| 1778062852 | 13.33° C | 88% | 1017 hPa | 0 mm | - | 0 W/m² | - |
| 1778062246 | 13.33° C | 88% | 1016.8 hPa | 0 mm | - | 0 W/m² | - |
| 1778061944 | 13.33° C | 88% | 1016.6 hPa | 0 mm | - | 0 W/m² | - |
| 1778061340 | 13.33° C | 88% | 1017 hPa | 0 mm | - | 0 W/m² | - |
| 1778061036 | 13.33° C | 88% | 1016.7 hPa | 0 mm | - | 0 W/m² | - |
| 1778060735 | 13.33° C | 88% | 1016.7 hPa | 0 mm | - | 0 W/m² | - |
| 1778060432 | 13.33° C | 88% | 1016.6 hPa | 0 mm | - | 0 W/m² | - |
* Rain latest hour (hover to see other rain measurements)
** Current wind speed in m/s (hover to see current wind gust speed)